Whitleys Peak, Santa Catalina Island Weather observations

Data are for 10 minute period ending at time listed.
 Day   Time   Solar   Ave.   Ave.  Ave.  Vector    Max.   Stn.    Total
  of    of     Rad.   Air    Rel.  Wind   Wind     Wind   Baro.  Precip.
Year   Day            Temp.  Hum.  Speed  Dir.     Gust   Pres.         
2015   (PST)   W/m2    F      %     mph   deg.      mph    mb.     in.  
------------------------------------------------------------------------
 247    5:10    0.0    59   92.2     8    188.3    10.2    999.0   0.00  
 247    5:20    0.0    58   90.4     9    191.9    10.8    999.0   0.00  
 247    5:30    0.0    58   91.0    10    200.3    11.3    999.0   0.00  
 247    5:40    5.0    58   94.6    11    199.6    12.5    999.0   0.00  
 247    5:50   10.0    58   96.0    12    199.7    13.1    999.0   0.00  
 247    6:00   17.0    58   96.3    11    195.9    12.5    999.0   0.00  
 247    6:10   25.0    58   96.2    11    188.3    13.1    999.0   0.00  
 247    6:20   33.0    58   95.4    10    198.6    11.3    999.0   0.00  
 247    6:30   41.0    58   96.3     9    196.8    11.9    999.0   0.00  
 247    6:40   60.0    58   96.6     8    197.5     9.6    999.0   0.00  
 247    6:50   68.0    58   96.7     8    193.7    10.2    999.0   0.00  
 247    7:00   61.0    59   96.5     7    185.8    11.9    999.0   0.00  
 247    7:10   67.0    59   95.6     8    181.7    11.3    999.0   0.00  
 247    7:20  101.0    59   94.8     7    191.9     9.0    999.0   0.00  
 247    7:30  213.0    60   92.5     6    200.3     8.4    999.0   0.00  
 247    7:40  243.0    62   86.9     5    201.9     7.2    999.0   0.00  
 247    7:50  149.0    62   84.6     6    214.9     9.0    999.0   0.00  
 247    8:00  154.0    62   79.7     6    214.6     7.8    999.0   0.00  
 247    8:10  147.0    62   77.6     6    221.2     8.4    999.0   0.00  
 247    8:20  164.0    63   76.6     4    185.4     8.4    999.0   0.00  
 247    8:30  184.0    62   76.7     5    229.9     7.2    999.0   0.00  
 247    8:40  182.0    63   77.2     5    203.8     9.0    999.0   0.00  
 247    8:50  199.0    64   74.7     4    141.4     9.0    999.0   0.00  
 247    9:00  233.0    65   71.4     3    108.8    10.8    999.0   0.00  
 247    9:10  229.0    66   71.2     3    101.8    10.2    999.0   0.00  
 247    9:20  261.0    66   69.9     3     84.3     7.2    999.0   0.00  
 247    9:30  276.0    65   71.9     6     88.0    11.9    999.0   0.00  
 247    9:40  273.0    65   71.0     9    104.1    11.9    999.0   0.00  
 247    9:50  288.0    64   72.0    10     94.6    13.1    999.0   0.00  
 247   10:00  281.0    64   72.4    12     92.2    14.9    999.0   0.00  
 247   10:10  306.0    64   71.7    11     89.3    13.7    999.0   0.00  
 247   10:20  578.0    65   70.4     9     87.9    12.5    999.0   0.00  
 247   10:30  503.0    66   67.3     9     85.7    11.3    999.0   0.00  
 247   10:40  385.0    65   69.6     8     71.5    10.8    999.0   0.00  
 247   10:50  411.0    66   69.4     8     84.1    11.9    999.0   0.00  
 247   11:00  472.0    66   67.4     8     77.9    12.5    999.0   0.00  
 247   11:10  404.0    66   68.9     8     77.4    10.8    999.0   0.00  
 247   11:20  375.0    67   67.4     6     90.0     9.6    999.0   0.00  
 247   11:30  307.0    67   67.8     4    147.4     6.6    999.0   0.00  
 247   11:40  260.0    67   68.5     4    335.9     7.2    999.0   0.00  
 247   11:50  196.0    66   73.1     3    214.7     5.4    999.0   0.00  
 247   12:00  247.0    67   72.1     4    277.1     8.4    999.0   0.00  
 247   12:10  246.0    66   75.4     4    264.6     7.8    999.0   0.00  
 247   12:20  226.0    66   76.5     4    250.6     9.0    999.0   0.00  
 247   12:30  231.0    65   78.4     6    235.3     9.6    999.0   0.00  
 247   12:40  273.0    64   81.6     6    227.6     9.6    999.0   0.00  
 247   12:50  321.0    64   80.7     6    234.7     8.4    999.0   0.00  
 247   13:00  342.0    66   75.6     5    316.5     7.8    999.0   0.00  
 247   13:10  350.0    67   73.3     5     25.6     9.6    999.0   0.00  
 247   13:20  415.0    67   71.9     7     67.5    10.8    999.0   0.00  
 247   13:30  648.0    67   71.4     9     82.4    13.7    999.0   0.00  
 247   13:40  571.0    67   70.8     7     83.4    10.8    999.0   0.00  
 247   13:50  826.0    68   65.4     7     90.8    11.3    999.0   0.00  
 247   14:00  700.0    68   63.8     7     77.7    13.1    999.0   0.00  
 247   14:10  741.0    70   61.4     5     39.8     7.8    999.0   0.00  
 247   14:20  706.0    70   61.3     4     58.8     9.0    999.0   0.00  
 247   14:30  679.0    71   59.2     6     45.8    10.8    999.0   0.00  
 247   14:40  659.0    70   63.6     8     51.9    13.1    999.0   0.00  
 247   14:50  584.0    69   65.1     8     51.2    11.3    999.0   0.00  
 247   15:00  637.0    68   65.8     7     62.2    10.2    999.0   0.00  
 247   15:10  595.0    68   65.7     6     50.8     9.6    999.0   0.00  
 247   15:20  562.0    69   65.9     6     44.9     9.0    999.0   0.00  
 247   15:30  542.0    67   68.1     6     59.0     9.6    999.0   0.00  
 247   15:40  384.0    67   68.8     4     62.2     6.6    999.0   0.00  
 247   15:50  418.0    67   69.5     4     28.6     6.6    999.0   0.00  
 247   16:00  461.0    68   69.7     3     36.5     6.0    999.0   0.00  
 247   16:10  197.0    67   70.8     3     54.4     4.2    999.0   0.00  
 247   16:20  162.0    66   75.1     3    286.8     6.6    999.0   0.00  
 247   16:30  216.0    66   76.3     3    292.5     8.4    999.0   0.00  
 247   16:40  292.0    67   74.8     5    278.2     9.6    999.0   0.00  
 247   16:50  221.0    66   74.0     6    253.6    10.2    999.0   0.00  
 247   17:00  210.0    66   75.5     8    243.2    10.8    999.0   0.00  
 247   17:10  195.0    65   77.6     9    242.5    12.5    999.0   0.00  
 247   17:20  164.0    64   79.5     9    242.1    11.9    999.0   0.00  
 247   17:30  129.0    64   79.8     8    248.8    11.3    999.0   0.00  
 247   17:40   83.0    63   82.4     9    249.0    11.9    999.0   0.00  
 247   17:50   47.0    62   84.5     9    241.9    12.5    999.0   0.00  
 247   18:00   19.0    62   86.7    10    245.1    13.7    999.0   0.00  
 247   18:10   12.0    61   87.9    11    247.6    14.3    999.0   0.00  
 247   18:20    6.0    61   87.3    12    253.8    16.7    999.0   0.00  
 247   18:30    0.0    61   89.7    13    267.8    16.1    999.0   0.00  
 247   18:40    0.0    61   91.6    14    263.1    19.1    999.0   0.00  
 247   18:50    0.0    61   91.6    13    264.6    16.7    999.0   0.00  
 247   19:00    0.0    60   91.7    11    263.9    14.3    999.0   0.00  
 247   19:10    0.0    60   91.5    11    259.0    14.3    999.0   0.00  
 247   19:20    0.0    60   91.4    10    256.6    13.7    999.0   0.00  
 247   19:30    0.0    60   91.4     9    248.6    14.9    999.0   0.00  
 247   19:40    0.0    60   92.1     8    250.4    10.8    999.0   0.00  
 247   19:50    0.0    60   91.8    10    262.5    14.3    999.0   0.00  
 247   20:00    0.0    60   90.6    10    261.4    13.1    999.0   0.00  
 247   20:10    0.0    60   91.2    10    260.0    12.5    999.0   0.00  
 247   20:20    0.0    60   91.8    10    254.1    12.5    999.0   0.00  
 247   20:30    0.0    60   92.0    10    258.3    14.3    999.0   0.00  
 247   20:40    0.0    60   92.2    10    252.8    13.7    999.0   0.00  
 247   20:50    0.0    60   93.7     8    221.2    10.2    999.0   0.00  
 247   21:00    0.0    60   95.3     8    210.4    10.2    999.0   0.00  
 247   21:10    0.0    60   95.9     7    206.4     9.6    999.0   0.00  
 247   21:20    0.0    60   96.1     6    213.9     7.8    999.0   0.00  
 247   21:30    0.0    60   96.4     6    214.1     7.2    999.0   0.00  
 247   21:40    0.0    60   96.8     6    209.1     7.2    999.0   0.00  
 247   21:50    0.0    60   96.9     6    211.9     7.8    999.0   0.00  
 247   22:00    0.0    60   97.1     7    214.9     7.8    999.0   0.00  
 247   22:10    0.0    60   97.2     7    211.7     7.8    999.0   0.00  
 247   22:20    0.0    60   97.3     6    213.5     7.8    999.0   0.00  
 247   22:30    0.0    60   97.4     6    223.1     7.8    999.0   0.00  
 247   22:40    0.0    60   97.4     7    207.3     9.6    999.0   0.00  
 247   22:50    0.0    60   97.3     7    214.6     9.0    999.0   0.00  
 247   23:00    0.0    60   97.2     6    214.6     7.8    999.0   0.00  
 247   23:10    0.0    60   97.1     5    209.1     7.8    999.0   0.00  
 247   23:20    0.0    60   96.9     7    197.9     9.0    999.0   0.00  
 247   23:30    0.0    59   97.1     8    196.5     9.6    999.0   0.00  
 247   23:40    0.0    59   97.3     8    200.1     9.0    999.0   0.00  
 247   23:50    0.0    59   97.4     8    201.0     9.0    999.0   0.00  
 248    0:00    0.0    59   97.5     7    195.6     8.4    999.0   0.00  
 248    0:10    0.0    59   97.6     5    194.9     7.2    999.0   0.00  
 248    0:20    0.0    59   97.7     3    176.0     6.0    999.0   0.00  
 248    0:30    0.0    59   97.8     1    162.8     2.4    999.0   0.00  
 248    0:40    0.0    58   97.8     1    126.0     3.0    999.0   0.00  
 248    0:50    0.0    58   97.8     4    122.1     5.4    999.0   0.00  
 248    1:00    0.0    59   97.6     4    123.7     4.8    999.0   0.00  
 248    1:10    0.0    60   95.6     3    124.3     3.6    999.0   0.00  
 248    1:20    0.0    59   94.0     1    117.8     3.0    999.0   0.00  
 248    1:30    0.0    59   94.8     0    180.5     2.4    999.0   0.00  
 248    1:40    0.0    60   94.5     2    160.4     3.0    999.0   0.00  
 248    1:50    0.0    60   93.7     0    168.6     2.4    999.0   0.00  
 248    2:00    0.0    60   92.6     1    202.5     3.6    999.0   0.00  
 248    2:10    0.0    60   91.2     4    212.7     4.8    999.0   0.00  
 248    2:20    0.0    60   90.4     4    204.1     4.8    999.0   0.00  
 248    2:30    0.0    60   90.2     3    184.3     4.2    999.0   0.00  
 248    2:40    0.0    60   89.9     3    204.1     4.2    999.0   0.00  
 248    2:50    0.0    60   90.0     4    203.9     4.8    999.0   0.00  
 248    3:00    0.0    60   89.9     4    197.8     4.2    999.0   0.00  
 248    3:10    0.0    60   90.1     4    202.0     5.4    999.0   0.00  
 248    3:20    0.0    60   89.5     3    161.9     6.0    999.0   0.00  
 248    3:30    0.0    61   87.3     4    146.3     7.2    999.0   0.00  
 248    3:40    0.0    60   88.9     3    172.0     5.4    999.0   0.00  
 248    3:50    0.0    60   89.1     4    172.1     6.0    999.0   0.00  
 248    4:00    0.0    61   87.9     3    158.7     4.8    999.0   0.00  
 248    4:10    0.0    60   88.5     3    161.3     4.8    999.0   0.00  
 248    4:20    0.0    61   87.4     4    164.8     5.4    999.0   0.00  
 248    4:30    0.0    61   87.8     4    191.6     6.6    999.0   0.00  
 248    4:40    0.0    61   87.8     4    180.8     6.0    999.0   0.00  
 248    4:50    0.0    61   86.2     4    147.5     6.0    999.0   0.00  
 248    5:00    0.0    61   85.0     5    130.2     7.8    999.0   0.00  

Return to Whitleys Peak graphs page.


Western Regional Climate Center,wrcc@dri.edu